Latest Coastal Weather Observations for Cape Leeuwin

IDW60701

Issued at 2:32 am WST Friday 27 May 2016 (issued every 10 minutes, with the page automatically refreshed every 10 minutes)

About coastal observations | Map of coastal stations | Coastal observations for WA | Marine services | Other Formats
Station Details ID: 009518 Name: CAPE LEEUWIN Lat: -34.37 Lon: 115.14 Height: 13.0 m
Data from the previous 72 hours. | See also: Recent months at Cape Leeuwin
Date/Time
WST
Temp

°C
Wind Pressure Rain
since 9am
mm
Weather Cloud Vis
km
Sea
Height
m
Swell
Dir
 
Speed
knots
Gust
knots
hPa Trend Height
m
Period
s
Dir
27/02:30am 12.9 NNE 11 14 1021.5 - 0.2 - - - - - - -
27/02:00am 12.6 NNE 10 13 1021.3 - 0.2 - - - - - - -
27/01:30am 13.5 N 9 10 1021.5 - 0.2 - - - - - - -
27/01:00am 13.7 N 9 11 1021.5 - 0.2 - - - - - - -
27/12:30am 13.5 N 9 11 1021.3 - 0.2 - - - - - - -
27/12:00am 14.0 N 7 9 1021.6 - 0.2 - - - - - - -
 
Date/Time
WST
Temp

°C
Wind Pressure Rain
since 9am
mm
Weather Cloud Vis
km
Sea
Height
m
Swell
Dir
 
Speed
knots
Gust
knots
hPa Trend Height
m
Period
s
Dir
26/11:30pm 15.5 NNW 7 10 1021.9 - 0.2 - - - - - - -
26/11:00pm 15.2 NNW 7 8 1022.0 - 0.2 - - - - - - -
26/10:30pm 15.1 N 6 8 1021.9 - 0.2 - - - - - - -
26/10:00pm 16.1 WNW 8 11 1022.1 - 0.2 - - - - - - -
26/09:30pm 16.1 WNW 9 11 1021.9 - 0.2 - - - - - - -
26/09:00pm 16.1 W 9 11 1021.6 - 0.2 - - - - - - -
26/08:30pm 16.1 W 9 12 1021.7 - 0.2 - - - - - - -
26/08:00pm 16.2 W 9 12 1021.4 - 0.2 - - - - - - -
26/07:30pm 16.1 W 7 11 1021.1 - 0.2 - - - - - - -
26/07:00pm 16.2 W 9 13 1020.7 - 0.2 - - - - - - -
26/06:30pm 16.1 WSW 11 13 1020.2 - 0.2 - - - - - - -
26/06:00pm 16.2 W 12 15 1019.9 - 0.2 - - - - - - -
26/05:30pm 16.3 W 13 16 1019.8 - 0.2 - - - - - - -
26/05:00pm 16.4 WSW 13 16 1019.6 - 0.2 - - - - - - -
26/04:30pm 16.9 WSW 14 18 1019.5 - 0.2 - - - - - - -
26/04:00pm 17.2 W 13 18 1019.2 - 0.2 - - - - - - -
26/03:30pm 17.4 W 15 18 1019.0 - 0.2 - - - - - - -
26/03:00pm 17.4 W 16 20 1018.9 - 0.2 - - - - - - -
26/02:30pm 17.7 WSW 17 20 1018.5 - 0.2 - - - - - - -
26/02:00pm 17.6 WSW 16 19 1018.1 - 0.2 - - - - - - -
26/01:30pm 17.5 WSW 17 22 1018.1 - 0.2 - - - - - - -
26/01:00pm 17.8 WSW 18 21 1017.8 - 0.2 - - - - - - -
26/12:30pm 17.5 WSW 18 23 1017.7 - 0.0 - - - - - - -
26/12:00pm 17.8 W 18 21 1017.7 - 0.0 - - - - - - -
26/11:30am 17.4 WSW 17 23 1017.6 - 0.0 - - - - - - -
26/11:00am 17.4 WSW 20 24 1017.8 - 0.0 - - - - - - -
26/10:30am 17.0 WSW 19 22 1017.4 - 0.0 - - - - - - -
26/10:00am 16.9 WSW 21 25 1017.0 - 0.0 - - - - - - -
26/09:30am 16.4 WSW 22 26 1016.4 - 0.0 - - - - - - -
26/09:00am 15.6 WSW 23 27 1015.7 - 3.6 Recent precip. - - - - - -
26/08:30am 14.7 W 22 32 1015.3 - 3.4 - - - - - - -
26/08:24am 15.4 W 19 29 1014.9 - 3.2 - - - - - - -
26/08:00am 16.7 WSW 22 29 1014.1 - 2.8 - - - - - - -
26/07:30am 16.3 WSW 21 25 1013.7 - 2.8 - - - - - - -
26/07:00am 16.3 WSW 23 27 1013.1 - 2.8 - - - - - - -
26/06:30am 16.3 WSW 26 32 1012.2 - 2.8 - - - - - - -
26/06:00am 16.3 W 26 31 1011.9 - 2.8 - - - - - - -
26/05:30am 16.3 W 29 35 1011.6 - 2.8 - - - - - - -
26/05:00am 16.4 W 29 35 1011.8 - 2.8 - - - - - - -
26/04:30am 16.3 W 28 34 1011.2 - 2.8 - - - - - - -
26/04:00am 15.6 WSW 31 38 1010.8 - 2.8 - - - - - - -
26/03:39am 15.9 W 31 42 1010.4 - 2.8 - - - - - - -
26/03:30am 16.9 W 31 37 1010.4 - 2.8 - - - - - - -
26/03:00am 16.8 W 29 34 1010.3 - 2.8 - - - - - - -
26/02:30am 16.6 W 30 35 1009.9 - 2.8 - - - - - - -
26/02:00am 16.8 W 29 35 1009.8 - 2.8 - - - - - - -
26/01:30am 16.7 W 29 34 1009.6 - 2.8 - - - - - - -
26/01:00am 16.3 W 28 37 1009.6 - 2.8 - - - - - - -
26/12:30am 16.8 W 27 35 1009.4 - 2.8 - - - - - - -
26/12:00am 16.9 WNW 27 33 1009.6 - 2.8 - - - - - - -
 
Date/Time
WST
Temp

°C
Wind Pressure Rain
since 9am
mm
Weather Cloud Vis
km
Sea
Height
m
Swell
Dir
 
Speed
knots
Gust
knots
hPa Trend Height
m
Period
s
Dir
25/11:30pm 16.7 WNW 24 29 1009.6 - 2.8 - - - - - - -
25/11:00pm 16.5 WNW 26 31 1009.5 - 2.8 - - - - - - -
25/10:30pm 16.1 WNW 25 30 1009.6 - 2.8 - - - - - - -
25/10:00pm 15.2 WNW 21 30 1009.6 - 2.8 - - - - - - -
25/09:53pm 14.4 WNW 27 40 1009.8 - 2.8 - - - - - - -
25/09:51pm 14.6 W 27 40 1009.9 - 2.8 - - - - - - -
25/09:49pm 15.6 W 26 40 1009.5 - 2.4 - - - - - - -
25/09:47pm 16.4 W 24 36 1009.5 - 2.4 - - - - - - -
25/09:30pm 16.7 WNW 26 31 1009.7 - 2.4 - - - - - - -
25/09:00pm 15.7 WNW 20 26 1009.6 - 2.4 Recent precip. - - - - - -
25/08:51pm 14.8 WNW 25 34 1009.6 - 2.4 - - - - - - -
25/08:43pm 14.7 WNW 25 37 1009.5 - 2.0 - - - - - - -
25/08:39pm 15.7 WNW 21 33 1009.5 - 1.8 - - - - - - -
25/08:30pm 15.2 WNW 25 29 1009.8 - 1.8 - - - - - - -
25/08:14pm 14.7 NW 27 37 1009.8 - 1.2 - - - - - - -
25/08:00pm 17.0 WNW 24 29 1009.5 - 0.2 - - - - - - -
25/07:30pm 16.8 WNW 24 29 1009.5 - 0.2 - - - - - - -
25/07:00pm 16.5 WNW 23 29 1009.6 - 0.2 - - - - - - -
25/06:30pm 16.8 WNW 24 29 1009.2 - 0.2 - - - - - - -
25/06:00pm 16.8 WNW 22 29 1008.9 - 0.2 - - - - - - -
25/05:30pm 16.7 WNW 22 26 1008.9 - 0.2 - - - - - - -
25/05:00pm 16.7 WNW 25 29 1008.8 - 0.2 - - - - - - -
25/04:30pm 17.0 WNW 22 26 1008.8 - 0.2 - - - - - - -
25/04:00pm 16.8 WNW 21 26 1008.7 - 0.2 - - - - - - -
25/03:30pm 16.6 WNW 20 24 1008.6 - 0.2 - - - - - - -
25/03:00pm 16.5 NW 21 25 1008.6 - 0.2 - - - - - - -
25/02:30pm 16.3 NW 21 28 1008.5 - 0.2 - - - - - - -
25/02:29pm 16.3 WNW 21 28 1008.5 - 0.2 - - - - - - -
25/02:00pm 16.8 W 19 23 1008.5 - 0.2 - - - - - - -
25/01:30pm 15.7 WNW 18 26 1008.8 - 0.2 - - - - - - -
25/01:27pm 15.5 WNW 19 26 1008.8 - 0.2 - - - - - - -
25/01:00pm 15.8 NW 21 25 1008.7 - 0.0 - - - - - - -
25/12:30pm 16.9 WNW 18 23 1008.7 - 0.0 - - - - - - -
25/12:00pm 16.9 WNW 20 24 1009.1 - 0.0 - - - - - - -
25/11:30am 16.8 WNW 19 23 1009.3 - 0.0 - - - - - - -
25/11:00am 16.7 WNW 17 23 1009.5 - 0.0 - - - - - - -
25/10:30am 16.5 WNW 20 24 1009.5 - 0.0 - - - - - - -
25/10:00am 16.1 WNW 20 24 1009.5 - 0.0 - - - - - - -
25/09:30am 16.0 WNW 21 24 1009.5 - 0.0 - - - - - - -
25/09:00am 16.2 W 18 22 1009.5 - 2.2 - - - - - - -
25/08:30am 15.5 W 16 21 1009.4 - 2.2 - - - - - - -
25/08:00am 13.7 WSW 20 31 1009.7 - 2.2 - - - - - - -
25/07:54am 15.0 WSW 18 28 1009.4 - 1.8 - - - - - - -
25/07:30am 15.3 W 17 21 1009.3 - 1.8 - - - - - - -
25/07:00am 15.4 W 20 24 1009.1 - 1.8 - - - - - - -
25/06:30am 15.4 W 19 24 1008.9 - 1.8 - - - - - - -
25/06:00am 15.1 W 21 26 1008.8 - 1.8 - - - - - - -
25/05:30am 14.9 W 22 30 1008.5 - 1.8 - - - - - - -
25/05:27am 15.4 W 21 30 1008.4 - 1.8 - - - - - - -
25/05:00am 14.2 W 15 20 1008.5 - 1.8 - - - - - - -
25/04:40am 14.1 W 19 29 1008.5 - 1.4 - - - - - - -
25/04:30am 14.9 WNW 17 22 1008.3 - 1.4 - - - - - - -
25/04:28am 15.2 WNW 18 22 1008.3 - 1.4 - - - - - - -
25/04:00am 15.1 W 20 24 1008.3 - 1.4 - - - - - - -
25/03:30am 14.3 WSW 25 30 1008.5 - 1.4 - - - - - - -
25/03:00am 14.9 W 20 24 1008.5 - 1.4 Recent precip. - - - - - -
25/02:36am 14.3 W 18 28 1008.5 - 1.4 - - - - - - -
25/02:30am 14.7 WNW 16 23 1008.5 - 1.4 - - - - - - -
25/02:21am 14.6 WNW 18 24 1008.6 - 1.0 - - - - - - -
25/02:00am 14.4 W 22 27 1008.5 - 1.0 - - - - - - -
25/01:40am 13.9 W 16 26 1008.5 - 1.0 - - - - - - -
25/01:30am 14.0 W 19 27 1008.5 - 1.0 - - - - - - -
25/01:00am 15.4 W 18 23 1008.6 - 0.2 - - - - - - -
25/12:30am 14.8 W 22 28 1008.6 - 0.2 - - - - - - -
25/12:00am 15.1 W 21 25 1008.7 - 0.2 - - - - - - -
 
Date/Time
WST
Temp

°C
Wind Pressure Rain
since 9am
mm
Weather Cloud Vis
km
Sea
Height
m
Swell
Dir
 
Speed
knots
Gust
knots
hPa Trend Height
m
Period
s
Dir
24/11:49pm 14.1 W 16 26 1008.9 - 0.2 - - - - - - -
24/11:30pm 14.0 WSW 20 27 1009.0 - 0.2 - - - - - - -
24/11:00pm 13.6 W 19 26 1009.0 - 0.2 - - - - - - -
24/10:34pm 14.6 W 20 27 1008.8 - 0.2 - - - - - - -
24/10:30pm 14.1 W 20 27 1008.9 - 0.2 - - - - - - -
24/10:29pm 14.3 W 20 27 1008.9 - 0.2 - - - - - - -
24/10:00pm 15.0 W 24 29 1008.8 - 0.0 - - - - - - -
24/09:44pm 15.9 W 19 29 1008.6 - 0.0 - - - - - - -
24/09:30pm 15.6 W 19 23 1008.7 - 0.0 - - - - - - -
24/09:00pm 15.7 W 20 25 1008.7 - 0.0 - - - - - - -
24/08:30pm 15.7 W 21 25 1008.7 - 0.0 - - - - - - -
24/08:00pm 15.4 W 21 26 1008.7 - 0.0 - - - - - - -
24/07:30pm 14.7 W 27 31 1008.5 - 0.0 - - - - - - -
24/07:18pm 14.9 W 23 33 1008.4 - 0.0 - - - - - - -
24/07:00pm 14.1 W 21 28 1008.5 - 0.0 - - - - - - -
24/06:51pm 14.0 WSW 22 30 1008.4 - 0.0 - - - - - - -
24/06:45pm 14.7 WSW 19 30 1008.5 - 0.0 - - - - - - -
24/06:41pm 15.2 W 16 30 1008.2 - 0.0 - - - - - - -
24/06:30pm 14.7 WSW 18 22 1008.1 - 0.0 - - - - - - -
24/06:05pm 14.6 W 24 34 1007.7 - 0.0 - - - - - - -
24/06:00pm 15.7 W 21 29 1007.7 - 0.0 - - - - - - -
24/05:33pm 15.5 W 22 33 1007.3 - 0.0 - - - - - - -
24/05:30pm 15.7 W 21 28 1007.3 - 0.0 - - - - - - -
24/05:00pm 16.0 W 21 25 1007.2 - 0.0 - - - - - - -
24/04:30pm 15.7 W 18 25 1007.1 - 0.0 - - - - - - -
24/04:00pm 16.1 W 21 24 1006.9 - 0.0 - - - - - - -
24/03:30pm 15.9 W 26 30 1006.4 - 0.0 - - - - - - -
24/03:00pm 16.7 W 22 26 1006.1 - 0.0 - - - - - - -
24/02:30pm 15.0 W 24 35 1006.0 - 0.0 - - - - - - -
24/02:25pm 16.1 WSW 21 31 1005.8 - 0.0 - - - - - - -
24/02:00pm 16.5 W 23 27 1005.7 - 0.0 - - - - - - -
24/01:30pm 16.5 WSW 22 27 1005.5 - 0.0 - - - - - - -
24/01:00pm 17.0 W 23 28 1005.2 - 0.0 - - - - - - -
24/12:30pm 16.1 W 27 33 1005.3 - 0.0 - - - - - - -
24/12:00pm 16.6 W 24 29 1005.3 - 0.0 - - - - - - -
24/11:30am 16.5 W 26 31 1005.4 - 0.0 - - - - - - -
24/11:00am 16.3 WSW 28 34 1005.3 - 0.0 - - - - - - -
24/10:30am 16.2 W 27 32 1005.0 - 0.0 - - - - - - -
24/10:00am 15.7 W 30 35 1004.7 - 0.0 - - - - - - -
24/09:30am 15.8 WSW 27 33 1004.4 - 0.0 - - - - - - -
24/09:00am 16.1 W 31 36 1003.7 - 28.2 - - - - - - -
24/08:30am 15.3 WSW 31 36 1003.4 - 28.2 - - - - - - -
24/08:04am 15.8 WSW 31 41 1002.9 - 28.2 - - - - - - -
24/08:00am 15.8 WSW 32 41 1002.8 - 28.2 - - - - - - -
24/07:30am 15.9 W 31 36 1002.3 - 28.2 - - - - - - -
24/07:00am 15.4 WSW 32 39 1001.7 - 28.2 - - - - - - -
24/06:30am 16.1 W 33 40 1000.8 - 28.2 - - - - - - -
24/06:00am 16.0 W 33 41 1000.3 - 28.2 - - - - - - -
24/05:30am 15.6 W 33 40 1000.0 - 28.2 - - - - - - -
24/05:00am 16.6 W 35 42 999.2 - 28.2 - - - - - - -
24/04:30am 16.7 W 36 44 998.7 - 28.2 - - - - - - -
24/04:00am 16.7 W 37 44 997.9 - 28.2 - - - - - - -
24/03:30am 17.0 W 36 44 997.5 - 28.0 - - - - - - -
24/03:00am 17.2 W 37 45 997.0 - 28.0 Recent precip. - - - - - -

Other Formats:

Comma delimited format used in spreadsheet applications
http://www.bom.gov.au/fwo/IDW60701/IDW60701.94601.axf

JavaScript Object Notation format (JSON) in row-major order
http://www.bom.gov.au/fwo/IDW60701/IDW60701.94601.json